x

Gulf Of Maine - 78 Nm East Of Portsmouth, Nh (44005) Wave Buoy

7:50 - Sat 3rd Dec 2016 All times are EST. -5 hours from GMT.

  • Sig Wave height 6.2ft
  • Swell Direction
  • Peak Period 6s
  • Average Period 5s
  • Wind
    27mph, 34mph gusts
  • Sea Temp 51°f
  • Luft Temp 43°f
  • Sea Pressure 1005.6mb
  • Gulf Of Maine - 78 Nm East Of Portsmouth, Nh
  • Gulf Of Maine - 78 Nm East Of Portsmouth, Nh

More Historic Weather Station data

Upgrade to MSW Pro to gain access to the past 30 days of data for over 8000 Wavebouys and Weather Stations around the globe.

Join Pro

Comparision Forecast

View Surf forecast
   
Sa 12/03 7:50 6ft 6s 5s 27 34 mph 1005.6mb 51f 43f
6:50 6ft 6s 5s 27 34 mph 1005.2mb 51f 43f
5:50 6.5ft 6s 5s 27 34 mph 1004.5mb 51f 43f
4:50 6ft 6s 5s 25 31 mph 1004mb 51f 43f
3:50 5.5ft 6s 5s 25 31 mph 1003.8mb 51f 43f
2:50 5.5ft 6s 5s 25 29 mph 1003.7mb 51f 44f
1:50 6ft 6s 5s 22 27 mph 1003.7mb 51f 44f
12:50 6ft 6s 5s 22 27 mph 1003.4mb 51f 43f
Fr 12/02 11:50 6ft 6s 5s 25 29 mph 1003mb 51f 46f
10:50 6ft 6s 5s 25 31 mph 1003.4mb 51f 47f
9:50 6ft 6s 5s 25 31 mph 1003.4mb 51f 47f
7:50 5.5ft 6s 5s 20 27 mph 1004.4mb 51f 49f
6:50 5ft 5s 5s 22 27 mph 1004.4mb 51f 50f
5:50 5ft 6s 5s 20 25 mph 1004.5mb 51f 50f
4:50 5ft 6s 5s 16 20 mph 1004.6mb 51f 49f
3:50 5ft 6s 5s 20 25 mph 1004.4mb 51f 49f
2:50 4.5ft 5s 5s 20 22 mph 1004.4mb 51f 49f
1:50 5ft 6s 5s 20 22 mph 1004.3mb 51f 48f
12:50 5ft 6s 5s 18 22 mph 1004.5mb 51f 47f
11:50 5ft 6s 5s 16 20 mph 1004.8mb 51f 47f
10:50 6ft 7s 5s 18 20 mph 1005.3mb 51f 47f
9:50 6ft 7s 5s 18 22 mph 1006mb 51f 47f
8:50 6ft 6s 5s 20 25 mph 1005.8mb 51f 47f
7:50 6.5ft 7s 6s 20 25 mph 1005.6mb 51f 47f
6:50 6.5ft 7s 6s 20 25 mph 1005.3mb 51f 47f
5:50 7ft 7s 6s 20 25 mph 1004.9mb 51f 47f
4:50 7ft 7s 6s 20 25 mph 1004.2mb 51f 47f
3:50 8ft 7s 6s 22 29 mph 1003.3mb 51f 47f
2:50 7ft 7s 5s 25 29 mph 1002.9mb 51f 47f
1:50 8ft 7s 6s 25 29 mph 1002.4mb 51f 47f
12:50 8ft 7s 6s 27 29 mph 1001.4mb 51f 47f
Do 12/01 11:50 8.5ft 7s 6s 27 34 mph 1000.9mb 51f 47f
10:50 8.5ft 7s 6s 29 36 mph 1000.7mb 51f 48f
9:50 8.5ft 7s 6s 27 36 mph 999.9mb 51f 48f
8:50 7ft 6s 6s 29 36 mph 999.3mb 51f 49f
7:50 6ft 5s 5s 27 34 mph 999.1mb 51f 50f
6:50 5ft 8s 5s 27 34 mph 998.7mb 51f 51f
5:50 5ft 8s 6s 9 13 mph 999.1mb 51f 49f
4:50 6ft 8s 6s 9 11 mph 998.6mb 51f 48f
3:50 7ft 9s 6s 13 18 mph 997.9mb 51f 47f
2:50 8ft 9s 6s 20 22 mph 997mb 51f 47f
1:50 9ft 9s 6s 27 31 mph 995.6mb 51f 46f
11:50 9ft 9s 6s 29 36 mph 993.8mb 51f 47f
10:50 10ft 8s 6s 29 36 mph 993.3mb 51f 49f
9:50 9.5ft 8s 6s 27 34 mph 992.7mb 51f 51f
8:50 10ft 8s 6s 22 29 mph 993.2mb 51f 55f
7:50 11ft 8s 6s 25 29 mph 994.1mb 51f 54f
6:50 13ft 8s 7s 27 31 mph 995.5mb 51f 52f
5:50 11.5ft 8s 6s 34 40 mph 995.8mb 51f 51f
4:50 11ft 7s 6s 31 38 mph 999mb 51f 49f
3:50 9ft 7s 6s 29 36 mph 1002.1mb 51f 49f
2:50 8.5ft 6s 5s 29 36 mph 1004.5mb 51f 49f
1:50 8ft 6s 5s 29 36 mph 1006mb 51f 49f
12:50 6.5ft 6s 5s 29 34 mph 1007.5mb 51f 48f
Mi 11/30 11:50 6ft 6s 5s 29 34 mph 1009mb 51f 48f
10:50 6ft 6s 5s 25 31 mph 1011.3mb 51f 48f
9:50 6.5ft 6s 5s 22 27 mph 1012.5mb 51f 47f
8:50 5.5ft 5s 5s 25 27 mph 1013.4mb 51f 47f
7:50 5ft 8s 5s 22 27 mph 1014.8mb 51f 47f
6:50 5ft 8s 5s 25 29 mph 1014.9mb 51f 47f
5:50 5ft 9s 6s 20 25 mph 1016.6mb 51f 46f
4:50 6ft 9s 6s 18 22 mph 1016.7mb 51f 45f
3:50 5ft 9s 6s 16 20 mph 1016.4mb 51f 45f
2:50 5ft 8s 6s 18 22 mph 1015.4mb 51f 45f
1:50 5ft 8s 6s 11 16 mph 1016.3mb 51f 44f
12:50 4.5ft 8s 5s 9 11 mph 1016.7mb 51f 44f
11:50 4.5ft 8s 5s 16 20 mph 1015.3mb 51f 44f
10:50 4.5ft 7s 5s 20 22 mph 1014.9mb 51f 43f
9:50 4.5ft 7s 5s 16 20 mph 1015.6mb 51f 44f
8:50 5ft 7s 5s 11 16 mph 1015.5mb 51f 43f
7:50 5ft 8s 5s 13 18 mph 1014.5mb 51f 43f
6:50 5.5ft 7s 5s 18 22 mph 1013.1mb 51f 44f
5:50 6ft 7s 5s 18 22 mph 1012.4mb 51f 44f
4:50 6ft 8s 5s 22 27 mph 1010.9mb 51f 44f
3:50 7ft 8s 6s 20 25 mph 1010mb 51f 45f
2:50 9ft 8s 7s 20 25 mph 1009.3mb 51f 48f
1:50 9ft 8s 6s 20 25 mph 1008.2mb 51f 50f
12:50 10.5ft 8s 6s 20 22 mph 1007.6mb 51f 54f
Di 11/29 11:50 11ft 8s 6s 25 29 mph 1007.4mb 51f 54f
10:50 11ft 8s 6s 31 40 mph 1007.9mb 51f 54f
9:50 10ft 7s 6s 34 43 mph 1008.6mb 51f 53f
8:50 9ft 7s 5s 34 40 mph 1010mb 51f 52f
7:50 7ft 6s 5s 34 38 mph 1011.7mb 51f 51f
6:50 7ft 6s 5s 31 36 mph 1013.6mb 51f 51f
5:50 5ft 6s 5s 29 36 mph 1015.6mb 51f 50f
4:50 5ft 5s 4s 29 34 mph 1017.1mb 51f 49f
3:50 4.5ft 5s 4s 27 31 mph 1018.1mb 51f 48f
2:50 3.5ft 4s 4s 22 29 mph 1019.4mb 51f 48f